Time,TemperatureF,DewpointF,PressureIn,WindDirection,WindDirectionDegrees,WindSpeedMPH,WindSpeedGustMPH,Humidity,HourlyPrecipIn,Conditions,Clouds,dailyrainin,SoftwareType,DateUTC
2013-07-21 00:04:00,65.7,52.3,30.00,NE,45,1.1,2.2,62,0.00,,,0.00,VWS V14.01,2013-07-21 05:04:00,
2013-07-21 00:09:00,65.5,52.1,30.00,ENE,68,2.2,2.7,62,0.00,,,0.00,VWS V14.01,2013-07-21 05:09:00,
2013-07-21 00:14:00,65.5,52.1,30.00,NE,45,0.0,0.0,62,0.00,,,0.00,VWS V14.01,2013-07-21 05:14:00,
2013-07-21 00:19:00,65.3,51.5,29.97,ENE,68,2.2,2.2,61,0.00,,,0.00,VWS V14.01,2013-07-21 05:19:00,
2013-07-21 00:24:00,65.3,51.1,29.97,ENE,68,0.0,0.0,60,0.00,,,0.00,VWS V14.01,2013-07-21 05:24:00,
2013-07-21 00:29:00,65.3,51.1,29.97,NE,45,2.7,4.9,60,0.00,,,0.00,VWS V14.01,2013-07-21 05:29:00,
2013-07-21 00:34:00,65.1,50.9,30.00,ENE,68,2.7,3.1,60,0.00,,,0.00,VWS V14.01,2013-07-21 05:34:00,
2013-07-21 00:39:00,65.1,50.9,30.00,NE,45,0.0,3.1,60,0.00,,,0.00,VWS V14.01,2013-07-21 05:39:00,
2013-07-21 00:44:00,65.1,50.5,30.00,ENE,68,2.5,3.8,59,0.00,,,0.00,VWS V14.01,2013-07-21 05:44:00,
2013-07-21 00:50:00,64.9,50.3,29.97,ENE,68,1.1,2.5,59,0.00,,,0.00,VWS V14.01,2013-07-21 05:50:00,
2013-07-21 00:55:00,64.9,50.3,29.97,NNE,22,0.9,0.9,59,0.00,,,0.00,VWS V14.01,2013-07-21 05:55:00,
2013-07-21 01:00:00,64.8,50.6,29.97,East,90,1.1,1.3,60,0.00,,,0.00,VWS V14.01,2013-07-21 06:00:00,
2013-07-21 01:05:00,64.6,50.4,30.00,ENE,68,0.9,0.9,60,0.00,,,0.00,VWS V14.01,2013-07-21 06:05:00,
2013-07-21 01:10:00,64.2,50.5,30.00,ENE,68,0.0,0.0,61,0.00,,,0.00,VWS V14.01,2013-07-21 06:10:00,
2013-07-21 01:15:00,64.2,50.5,30.00,ENE,68,1.3,1.3,61,0.00,,,0.00,VWS V14.01,2013-07-21 06:15:00,
2013-07-21 01:20:00,64.0,50.3,30.00,NE,45,0.0,2.0,61,0.00,,,0.00,VWS V14.01,2013-07-21 06:20:00,
2013-07-21 01:25:00,63.9,50.2,30.00,NE,45,0.0,0.0,61,0.00,,,0.00,VWS V14.01,2013-07-21 06:25:00,
2013-07-21 01:30:00,63.9,50.6,30.00,ENE,68,2.0,2.0,62,0.00,,,0.00,VWS V14.01,2013-07-21 06:30:00,
2013-07-21 01:35:00,63.9,50.6,30.00,ENE,68,0.0,1.3,62,0.00,,,0.00,VWS V14.01,2013-07-21 06:35:00,
2013-07-21 01:40:00,63.7,50.9,30.00,NW,315,2.0,2.0,63,0.00,,,0.00,VWS V14.01,2013-07-21 06:40:00,
2013-07-21 01:45:00,63.7,50.9,30.00,NW,315,0.0,1.6,63,0.00,,,0.00,VWS V14.01,2013-07-21 06:45:00,
2013-07-21 01:50:00,63.9,50.6,30.00,ENE,68,2.5,2.5,62,0.00,,,0.00,VWS V14.01,2013-07-21 06:50:00,
2013-07-21 01:55:00,63.9,50.6,30.00,ENE,68,0.9,1.1,62,0.00,,,0.00,VWS V14.01,2013-07-21 06:55:00,
2013-07-21 02:01:00,63.9,50.6,30.00,NE,45,1.1,1.1,62,0.00,,,0.00,VWS V14.01,2013-07-21 07:01:00,
2013-07-21 02:06:00,63.7,50.4,30.00,East,90,2.7,3.6,62,0.00,,,0.00,VWS V14.01,2013-07-21 07:06:00,
2013-07-21 02:11:00,63.5,50.3,30.00,ENE,68,3.1,3.6,62,0.00,,,0.00,VWS V14.01,2013-07-21 07:11:00,
2013-07-21 02:16:00,63.1,50.3,30.00,ENE,68,0.0,2.5,63,0.00,,,0.00,VWS V14.01,2013-07-21 07:16:00,
2013-07-21 02:21:00,62.8,50.4,29.97,ENE,68,0.0,1.1,64,0.00,,,0.00,VWS V14.01,2013-07-21 07:21:00,
2013-07-21 02:26:00,62.6,50.7,29.97,ENE,68,2.7,2.7,65,0.00,,,0.00,VWS V14.01,2013-07-21 07:26:00,
2013-07-21 02:31:00,62.4,50.9,29.97,NE,45,0.0,1.1,66,0.00,,,0.00,VWS V14.01,2013-07-21 07:31:00,
2013-07-21 02:36:00,62.1,50.6,29.97,NE,45,0.0,0.0,66,0.00,,,0.00,VWS V14.01,2013-07-21 07:36:00,
2013-07-21 02:41:00,61.9,50.4,29.97,NE,45,0.0,0.0,66,0.00,,,0.00,VWS V14.01,2013-07-21 07:41:00,
2013-07-21 02:46:00,61.5,50.5,29.97,NE,45,0.0,0.9,67,0.00,,,0.00,VWS V14.01,2013-07-21 07:46:00,
2013-07-21 02:51:00,61.3,50.3,29.97,ENE,68,1.6,1.6,67,0.00,,,0.00,VWS V14.01,2013-07-21 07:51:00,
2013-07-21 02:56:00,61.2,50.5,29.97,NE,45,0.0,0.0,68,0.00,,,0.00,VWS V14.01,2013-07-21 07:56:00,
2013-07-21 03:01:00,61.0,50.8,29.97,NE,45,0.0,0.0,69,0.00,,,0.00,VWS V14.01,2013-07-21 08:01:00,
2013-07-21 03:06:00,60.6,50.4,29.97,NE,45,0.0,0.0,69,0.00,,,0.00,VWS V14.01,2013-07-21 08:06:00,
2013-07-21 03:12:00,60.6,50.8,29.97,NE,45,0.0,0.0,70,0.00,,,0.00,VWS V14.01,2013-07-21 08:12:00,
2013-07-21 03:17:00,60.4,51.0,29.97,NE,45,0.0,0.0,71,0.00,,,0.00,VWS V14.01,2013-07-21 08:17:00,
2013-07-21 03:22:00,60.1,50.7,29.97,NE,45,0.0,0.0,71,0.00,,,0.00,VWS V14.01,2013-07-21 08:22:00,
2013-07-21 03:27:00,59.9,50.5,29.97,ENE,68,0.0,0.0,71,0.00,,,0.00,VWS V14.01,2013-07-21 08:27:00,
2013-07-21 03:32:00,59.7,50.7,29.97,ENE,68,2.0,2.0,72,0.00,,,0.00,VWS V14.01,2013-07-21 08:32:00,
2013-07-21 03:37:00,59.7,51.1,29.97,NE,45,0.0,2.9,73,0.00,,,0.00,VWS V14.01,2013-07-21 08:37:00,
2013-07-21 03:42:00,59.7,51.4,29.97,NNE,22,2.0,2.5,74,0.00,,,0.00,VWS V14.01,2013-07-21 08:42:00,
2013-07-21 03:47:00,59.5,51.6,29.97,NE,45,0.0,2.0,75,0.00,,,0.00,VWS V14.01,2013-07-21 08:47:00,
2013-07-21 03:52:00,59.5,52.0,29.97,ENE,68,0.0,1.3,76,0.00,,,0.00,VWS V14.01,2013-07-21 08:52:00,
2013-07-21 03:57:00,59.4,52.5,29.97,NE,45,0.0,0.9,78,0.00,,,0.00,VWS V14.01,2013-07-21 08:57:00,
2013-07-21 04:02:00,59.2,52.3,29.97,East,90,0.0,1.1,78,0.00,,,0.00,VWS V14.01,2013-07-21 09:02:00,
2013-07-21 04:07:00,59.2,53.0,29.97,ENE,68,1.1,2.5,80,0.00,,,0.00,VWS V14.01,2013-07-21 09:07:00,
2013-07-21 04:12:00,59.0,52.8,29.97,ENE,68,0.0,2.2,80,0.00,,,0.00,VWS V14.01,2013-07-21 09:12:00,
2013-07-21 04:18:00,59.0,53.2,29.97,ENE,68,1.3,2.2,81,0.00,,,0.00,VWS V14.01,2013-07-21 09:18:00,
2013-07-21 04:23:00,59.0,53.2,29.97,ENE,68,0.0,1.6,81,0.00,,,0.00,VWS V14.01,2013-07-21 09:23:00,
2013-07-21 04:28:00,58.8,53.3,29.97,NNE,22,0.0,2.0,82,0.00,,,0.00,VWS V14.01,2013-07-21 09:28:00,
2013-07-21 04:33:00,58.8,53.3,29.94,NE,45,0.0,1.6,82,0.00,,,0.00,VWS V14.01,2013-07-21 09:33:00,
2013-07-21 04:38:00,58.6,52.8,29.94,ENE,68,1.6,1.6,81,0.00,,,0.00,VWS V14.01,2013-07-21 09:38:00,
2013-07-21 04:43:00,58.5,53.0,29.94,ENE,68,0.0,1.1,82,0.00,,,0.00,VWS V14.01,2013-07-21 09:43:00,
2013-07-21 04:48:00,58.5,53.0,29.97,ENE,68,0.0,1.6,82,0.00,,,0.00,VWS V14.01,2013-07-21 09:48:00,
2013-07-21 04:53:00,58.3,52.8,29.97,ENE,68,0.0,0.0,82,0.00,,,0.00,VWS V14.01,2013-07-21 09:53:00,
2013-07-21 04:59:00,58.3,52.8,29.97,ENE,68,0.0,0.0,82,0.00,,,0.00,VWS V14.01,2013-07-21 09:59:00,
2013-07-21 05:04:00,58.1,52.6,29.97,NE,45,0.0,0.0,82,0.00,,,0.00,VWS V14.01,2013-07-21 10:04:00,
2013-07-21 05:09:00,58.1,53.0,29.97,NE,45,0.0,0.0,83,0.00,,,0.00,VWS V14.01,2013-07-21 10:09:00,
2013-07-21 05:14:00,58.3,53.2,29.97,ENE,68,0.0,2.2,83,0.00,,,0.00,VWS V14.01,2013-07-21 10:14:00,
2013-07-21 05:19:00,58.5,53.3,29.97,NE,45,0.0,0.0,83,0.00,,,0.00,VWS V14.01,2013-07-21 10:19:00,
2013-07-21 05:24:00,58.6,53.8,29.97,ENE,68,0.9,0.9,84,0.00,,,0.00,VWS V14.01,2013-07-21 10:24:00,
2013-07-21 05:29:00,58.8,54.0,29.97,ENE,68,0.9,0.9,84,0.00,,,0.00,VWS V14.01,2013-07-21 10:29:00,
2013-07-21 05:34:00,59.0,54.2,29.97,ENE,68,0.0,0.0,84,0.00,,,0.00,VWS V14.01,2013-07-21 10:34:00,
2013-07-21 05:39:00,59.2,54.4,29.97,ENE,68,0.0,0.0,84,0.00,,,0.00,VWS V14.01,2013-07-21 10:39:00,
2013-07-21 05:44:00,59.4,54.5,29.97,ENE,68,0.0,0.0,84,0.00,,,0.00,VWS V14.01,2013-07-21 10:44:00,
2013-07-21 05:49:00,59.4,54.5,29.97,ENE,68,0.0,0.0,84,0.00,,,0.00,VWS V14.01,2013-07-21 10:49:00,
2013-07-21 05:54:00,59.7,55.2,29.97,ENE,68,1.6,1.6,85,0.00,,,0.00,VWS V14.01,2013-07-21 10:54:00,
2013-07-21 05:59:00,59.9,55.7,29.97,ENE,68,0.0,1.1,86,0.00,,,0.00,VWS V14.01,2013-07-21 10:59:00,
2013-07-21 06:05:00,60.1,56.2,29.97,ENE,68,0.0,2.7,87,0.00,,,0.00,VWS V14.01,2013-07-21 11:05:00,
2013-07-21 06:10:00,60.4,56.6,29.97,ENE,68,1.3,1.3,87,0.00,,,0.00,VWS V14.01,2013-07-21 11:10:00,
2013-07-21 06:15:00,60.6,56.7,29.97,ENE,68,0.0,0.0,87,0.00,,,0.00,VWS V14.01,2013-07-21 11:15:00,
2013-07-21 06:20:00,60.8,56.9,29.97,ENE,68,1.1,1.6,87,0.00,,,0.00,VWS V14.01,2013-07-21 11:20:00,
2013-07-21 06:25:00,61.2,57.6,29.97,ENE,68,0.0,0.0,88,0.00,,,0.00,VWS V14.01,2013-07-21 11:25:00,
2013-07-21 06:30:00,61.3,57.8,29.97,ENE,68,0.0,1.1,88,0.00,,,0.00,VWS V14.01,2013-07-21 11:30:00,
2013-07-21 06:35:00,61.5,58.2,30.00,NE,45,2.0,2.7,89,0.00,,,0.00,VWS V14.01,2013-07-21 11:35:00,
2013-07-21 06:40:00,61.9,58.9,30.00,ENE,68,2.0,2.0,90,0.00,,,0.00,VWS V14.01,2013-07-21 11:40:00,
2013-07-21 06:45:00,62.2,59.6,30.00,NNE,22,2.9,3.4,91,0.00,,,0.00,VWS V14.01,2013-07-21 11:45:00,
2013-07-21 06:50:00,62.4,59.8,30.00,NE,45,1.6,1.6,91,0.00,,,0.00,VWS V14.01,2013-07-21 11:50:00,
2013-07-21 06:55:00,62.8,59.8,30.00,ENE,68,2.0,2.0,90,0.00,,,0.00,VWS V14.01,2013-07-21 11:55:00,
2013-07-21 07:00:00,63.0,60.3,30.00,ENE,68,2.0,4.0,91,0.00,,,0.00,VWS V14.01,2013-07-21 12:00:00,
2013-07-21 07:06:00,63.1,60.2,30.00,NE,45,3.8,3.8,90,0.00,,,0.00,VWS V14.01,2013-07-21 12:06:00,
2013-07-21 07:11:00,63.3,60.3,30.00,East,90,3.4,4.3,90,0.00,,,0.00,VWS V14.01,2013-07-21 12:11:00,
2013-07-21 07:16:00,63.7,60.7,30.00,NE,45,2.0,3.6,90,0.00,,,0.00,VWS V14.01,2013-07-21 12:16:00,
2013-07-21 07:21:00,63.9,60.6,29.97,ESE,112,0.9,3.8,89,0.00,,,0.00,VWS V14.01,2013-07-21 12:21:00,
2013-07-21 07:26:00,64.0,60.7,29.97,ENE,68,2.9,3.4,89,0.00,,,0.00,VWS V14.01,2013-07-21 12:26:00,
2013-07-21 07:31:00,64.2,60.6,29.97,ENE,68,2.2,3.4,88,0.00,,,0.00,VWS V14.01,2013-07-21 12:31:00,
2013-07-21 07:36:00,64.2,60.3,29.97,NE,45,1.1,2.5,87,0.00,,,0.00,VWS V14.01,2013-07-21 12:36:00,
2013-07-21 07:41:00,64.4,60.5,29.97,East,90,2.9,5.4,87,0.00,,,0.00,VWS V14.01,2013-07-21 12:41:00,
2013-07-21 07:46:00,64.4,60.1,29.97,East,90,3.1,3.1,86,0.00,,,0.00,VWS V14.01,2013-07-21 12:46:00,
2013-07-21 07:51:00,64.6,60.0,29.97,NE,45,2.7,5.8,85,0.00,,,0.00,VWS V14.01,2013-07-21 12:51:00,
2013-07-21 07:56:00,64.8,60.2,29.97,East,90,1.3,3.6,85,0.00,,,0.00,VWS V14.01,2013-07-21 12:56:00,
2013-07-21 08:01:00,64.9,60.3,29.97,NE,45,1.3,3.8,85,0.00,,,0.00,VWS V14.01,2013-07-21 13:01:00,
2013-07-21 08:06:00,65.1,60.5,30.00,NE,45,2.0,2.7,85,0.00,,,0.00,VWS V14.01,2013-07-21 13:06:00,
2013-07-21 08:11:00,65.3,60.0,30.00,ENE,68,3.1,5.6,83,0.00,,,0.00,VWS V14.01,2013-07-21 13:11:00,
2013-07-21 08:17:00,65.5,60.2,30.00,NNW,338,4.3,4.9,83,0.00,,,0.00,VWS V14.01,2013-07-21 13:17:00,
2013-07-21 08:22:00,65.8,60.2,30.00,ENE,68,2.7,3.6,82,0.00,,,0.00,VWS V14.01,2013-07-21 13:22:00,
2013-07-21 08:27:00,66.0,60.4,30.00,NE,45,4.0,4.3,82,0.00,,,0.00,VWS V14.01,2013-07-21 13:27:00,
2013-07-21 08:32:00,66.2,60.2,30.00,NE,45,4.0,4.0,81,0.00,,,0.00,VWS V14.01,2013-07-21 13:32:00,
2013-07-21 08:37:00,66.9,60.2,30.00,ENE,68,3.8,6.0,79,0.00,,,0.00,VWS V14.01,2013-07-21 13:37:00,
2013-07-21 08:42:00,67.1,60.0,30.00,North,0,4.0,5.6,78,0.00,,,0.00,VWS V14.01,2013-07-21 13:42:00,
2013-07-21 08:47:00,66.9,59.8,30.00,NE,45,3.6,4.9,78,0.00,,,0.00,VWS V14.01,2013-07-21 13:47:00,
2013-07-21 08:52:00,67.1,60.0,30.00,ENE,68,5.6,6.0,78,0.00,,,0.00,VWS V14.01,2013-07-21 13:52:00,
2013-07-21 08:57:00,67.5,60.4,30.00,ENE,68,3.1,5.8,78,0.00,,,0.00,VWS V14.01,2013-07-21 13:57:00,
2013-07-21 09:02:00,67.8,60.7,30.00,ENE,68,1.6,3.8,78,0.00,,,0.00,VWS V14.01,2013-07-21 14:02:00,
2013-07-21 09:07:00,67.6,60.2,30.00,East,90,1.1,5.4,77,0.00,,,0.00,VWS V14.01,2013-07-21 14:07:00,
2013-07-21 09:12:00,67.3,59.8,30.00,ENE,68,1.1,5.4,77,0.00,,,0.00,VWS V14.01,2013-07-21 14:12:00,
2013-07-21 09:17:00,67.1,60.0,29.97,NE,45,4.9,5.4,78,0.00,,,0.00,VWS V14.01,2013-07-21 14:17:00,
2013-07-21 09:23:00,66.6,59.8,29.97,NNE,22,1.6,4.9,79,0.00,,,0.00,VWS V14.01,2013-07-21 14:23:00,
2013-07-21 09:28:00,66.6,59.8,29.97,NE,45,4.5,5.6,79,0.00,,,0.00,VWS V14.01,2013-07-21 14:28:00,
2013-07-21 09:33:00,66.0,59.7,30.00,NE,45,2.9,4.9,80,0.00,,,0.00,VWS V14.01,2013-07-21 14:33:00,
2013-07-21 09:38:00,65.7,59.7,30.00,NE,45,3.4,4.0,81,0.00,,,0.00,VWS V14.01,2013-07-21 14:38:00,
2013-07-21 09:43:00,65.5,59.8,30.00,ESE,112,2.5,3.1,82,0.00,,,0.00,VWS V14.01,2013-07-21 14:43:00,
2013-07-21 09:48:00,65.3,59.7,30.00,NNE,22,1.6,3.6,82,0.00,,,0.00,VWS V14.01,2013-07-21 14:48:00,
2013-07-21 09:53:00,64.9,59.7,30.00,East,90,1.3,3.4,83,0.00,,,0.00,VWS V14.01,2013-07-21 14:53:00,
2013-07-21 09:58:00,64.4,59.8,30.00,NNE,22,0.0,2.9,85,0.00,,,0.00,VWS V14.01,2013-07-21 14:58:00,
2013-07-21 10:03:00,64.2,60.3,30.00,NW,315,1.3,1.3,87,0.00,,,0.00,VWS V14.01,2013-07-21 15:03:00,
2013-07-21 10:08:00,63.9,60.6,30.00,NW,315,1.3,1.6,89,0.00,,,0.00,VWS V14.01,2013-07-21 15:08:00,
2013-07-21 10:13:00,63.5,60.8,30.00,WSW,248,1.6,2.0,91,0.00,,,0.00,VWS V14.01,2013-07-21 15:13:00,
2013-07-21 10:18:00,63.1,60.8,30.03,ENE,68,0.9,4.7,92,0.00,,,0.00,VWS V14.01,2013-07-21 15:18:00,
2013-07-21 10:23:00,63.0,60.9,30.03,SSE,158,1.1,2.5,93,0.00,,,0.00,VWS V14.01,2013-07-21 15:23:00,
2013-07-21 10:28:00,62.8,60.7,30.03,ESE,112,0.9,1.3,93,0.00,,,0.00,VWS V14.01,2013-07-21 15:28:00,
2013-07-21 10:34:00,62.4,60.7,30.00,NE,45,1.6,2.9,94,0.00,,,0.00,VWS V14.01,2013-07-21 15:34:00,
2013-07-21 10:39:00,62.1,60.6,30.00,ENE,68,2.2,3.1,95,0.04,,,0.04,VWS V14.01,2013-07-21 15:39:00,
2013-07-21 10:44:00,61.9,60.4,30.00,NE,45,0.0,2.2,95,0.04,,,0.04,VWS V14.01,2013-07-21 15:44:00,
2013-07-21 10:49:00,61.7,60.0,30.00,NE,45,0.0,2.0,94,0.04,,,0.04,VWS V14.01,2013-07-21 15:49:00,
2013-07-21 10:54:00,61.7,60.3,30.00,ENE,68,1.6,1.6,95,0.04,,,0.04,VWS V14.01,2013-07-21 15:54:00,
2013-07-21 10:59:00,61.5,60.4,30.00,ENE,68,1.6,1.6,96,0.04,,,0.04,VWS V14.01,2013-07-21 15:59:00,
2013-07-21 11:04:00,61.5,60.4,30.00,ENE,68,0.9,3.6,96,0.04,,,0.04,VWS V14.01,2013-07-21 16:04:00,
2013-07-21 11:09:00,61.5,60.7,30.00,NE,45,1.1,1.3,97,0.08,,,0.08,VWS V14.01,2013-07-21 16:09:00,
2013-07-21 11:14:00,61.7,61.1,30.00,NE,45,3.1,3.6,98,0.08,,,0.08,VWS V14.01,2013-07-21 16:14:00,
2013-07-21 11:19:00,61.7,61.1,29.97,NNE,22,3.1,4.3,98,0.08,,,0.08,VWS V14.01,2013-07-21 16:19:00,
2013-07-21 11:24:00,62.1,61.5,29.97,WNW,292,2.5,2.5,98,0.08,,,0.08,VWS V14.01,2013-07-21 16:24:00,
2013-07-21 11:29:00,62.4,61.8,29.97,NW,315,0.0,3.8,98,0.12,,,0.12,VWS V14.01,2013-07-21 16:29:00,
2013-07-21 11:35:00,62.6,62.0,30.00,NNE,22,1.3,1.6,98,0.08,,,0.12,VWS V14.01,2013-07-21 16:35:00,
2013-07-21 11:40:00,62.8,62.2,30.00,NNE,22,1.1,1.1,98,0.08,,,0.12,VWS V14.01,2013-07-21 16:40:00,
2013-07-21 11:45:00,62.8,62.2,30.00,NNE,22,0.0,1.1,98,0.08,,,0.12,VWS V14.01,2013-07-21 16:45:00,
2013-07-21 11:50:00,62.6,62.0,30.00,ENE,68,2.2,2.9,98,0.08,,,0.12,VWS V14.01,2013-07-21 16:50:00,
2013-07-21 11:55:00,62.4,61.8,30.00,ENE,68,0.0,2.9,98,0.08,,,0.12,VWS V14.01,2013-07-21 16:55:00,
2013-07-21 12:00:00,62.4,61.8,30.00,NE,45,3.1,3.1,98,0.08,,,0.12,VWS V14.01,2013-07-21 17:00:00,
2013-07-21 12:05:00,62.4,61.8,29.94,NE,45,4.7,4.7,98,0.08,,,0.12,VWS V14.01,2013-07-21 17:05:00,
2013-07-21 12:10:00,62.2,61.7,29.94,NE,45,2.0,3.1,98,0.04,,,0.12,VWS V14.01,2013-07-21 17:10:00,
2013-07-21 12:15:00,62.2,61.7,29.94,ESE,112,2.9,2.9,98,0.04,,,0.12,VWS V14.01,2013-07-21 17:15:00,
2013-07-21 12:20:00,62.4,61.8,30.00,SSW,202,4.0,4.0,98,0.04,,,0.12,VWS V14.01,2013-07-21 17:20:00,
2013-07-21 12:25:00,62.4,61.8,30.00,West,270,0.0,2.0,98,0.04,,,0.12,VWS V14.01,2013-07-21 17:25:00,
2013-07-21 12:30:00,62.6,62.0,30.00,WNW,292,0.9,2.0,98,0.00,,,0.12,VWS V14.01,2013-07-21 17:30:00,
2013-07-21 12:35:00,62.8,62.2,30.00,SSW,202,0.0,0.0,98,0.00,,,0.12,VWS V14.01,2013-07-21 17:35:00,
2013-07-21 12:40:00,63.0,62.4,30.00,NE,45,2.5,2.7,98,0.00,,,0.12,VWS V14.01,2013-07-21 17:40:00,
2013-07-21 12:46:00,63.5,62.9,30.00,ENE,68,0.0,1.1,98,0.00,,,0.12,VWS V14.01,2013-07-21 17:46:00,
2013-07-21 12:51:00,64.2,63.7,29.97,ENE,68,1.3,2.2,98,0.00,,,0.12,VWS V14.01,2013-07-21 17:51:00,
2013-07-21 12:56:00,64.9,64.1,29.97,East,90,2.5,2.5,97,0.00,,,0.12,VWS V14.01,2013-07-21 17:56:00,
2013-07-21 13:01:00,66.2,65.3,29.97,ENE,68,1.6,2.7,97,0.00,,,0.12,VWS V14.01,2013-07-21 18:01:00,
2013-07-21 13:06:00,67.1,66.2,29.94,ENE,68,2.2,2.5,97,0.00,,,0.12,VWS V14.01,2013-07-21 18:06:00,
2013-07-21 13:11:00,68.2,66.4,29.94,ENE,68,2.7,3.8,94,0.00,,,0.12,VWS V14.01,2013-07-21 18:11:00,
2013-07-21 13:16:00,68.2,65.8,29.94,SE,135,1.1,3.6,92,0.00,,,0.12,VWS V14.01,2013-07-21 18:16:00,
2013-07-21 13:21:00,68.4,65.9,29.97,SSE,158,0.0,3.8,92,0.00,,,0.12,VWS V14.01,2013-07-21 18:21:00,
2013-07-21 13:26:00,68.5,65.8,29.97,SE,135,0.0,2.0,91,0.00,,,0.12,VWS V14.01,2013-07-21 18:26:00,
2013-07-21 13:31:00,68.9,65.2,29.97,East,90,1.3,1.3,88,0.00,,,0.12,VWS V14.01,2013-07-21 18:31:00,
2013-07-21 13:36:00,69.1,66.0,29.94,SE,135,0.0,1.6,90,0.00,,,0.12,VWS V14.01,2013-07-21 18:36:00,
2013-07-21 13:41:00,69.1,66.0,29.94,East,90,0.0,2.7,90,0.00,,,0.12,VWS V14.01,2013-07-21 18:41:00,
2013-07-21 13:47:00,69.1,65.7,29.97,SSE,158,0.0,1.6,89,0.00,,,0.12,VWS V14.01,2013-07-21 18:47:00,
2013-07-21 13:52:00,69.4,66.1,29.97,WNW,292,0.0,2.5,89,0.00,,,0.12,VWS V14.01,2013-07-21 18:52:00,
2013-07-21 13:57:00,69.6,65.9,29.97,NE,45,3.6,3.6,88,0.00,,,0.12,VWS V14.01,2013-07-21 18:57:00,
2013-07-21 14:02:00,69.4,66.1,29.97,ENE,68,1.6,3.6,89,0.00,,,0.12,VWS V14.01,2013-07-21 19:02:00,
2013-07-21 14:07:00,69.4,66.1,29.97,East,90,2.0,2.9,89,0.00,,,0.12,VWS V14.01,2013-07-21 19:07:00,
2013-07-21 14:12:00,69.3,65.9,29.97,NE,45,2.9,4.0,89,0.00,,,0.12,VWS V14.01,2013-07-21 19:12:00,
2013-07-21 14:17:00,68.7,65.7,29.97,WSW,248,1.3,2.5,90,0.00,,,0.12,VWS V14.01,2013-07-21 19:17:00,
2013-07-21 14:22:00,68.7,66.0,29.97,South,180,1.1,2.2,91,0.00,,,0.12,VWS V14.01,2013-07-21 19:22:00,
2013-07-21 14:27:00,68.5,65.5,29.97,ESE,112,2.0,3.1,90,0.00,,,0.12,VWS V14.01,2013-07-21 19:27:00,
2013-07-21 14:32:00,68.5,65.5,30.00,NNE,22,1.6,2.7,90,0.00,,,0.12,VWS V14.01,2013-07-21 19:32:00,
2013-07-21 14:37:00,68.2,65.1,30.00,SSE,158,1.3,3.1,90,0.00,,,0.12,VWS V14.01,2013-07-21 19:37:00,
2013-07-21 14:42:00,68.0,65.0,30.00,South,180,2.9,3.6,90,0.00,,,0.12,VWS V14.01,2013-07-21 19:42:00,
2013-07-21 14:47:00,67.8,65.1,30.00,ESE,112,3.8,3.8,91,0.00,,,0.12,VWS V14.01,2013-07-21 19:47:00,
2013-07-21 14:52:00,67.5,65.1,29.97,NE,45,4.0,4.0,92,0.00,,,0.12,VWS V14.01,2013-07-21 19:52:00,
2013-07-21 14:58:00,67.6,64.9,29.97,NNE,22,2.0,4.3,91,0.00,,,0.12,VWS V14.01,2013-07-21 19:58:00,
2013-07-21 15:03:00,68.5,65.8,29.94,East,90,4.9,4.9,91,0.00,,,0.12,VWS V14.01,2013-07-21 20:03:00,
2013-07-21 15:08:00,69.3,65.9,29.94,NE,45,6.0,6.0,89,0.00,,,0.12,VWS V14.01,2013-07-21 20:08:00,
2013-07-21 15:13:00,69.4,66.1,29.94,NNE,22,2.5,4.0,89,0.00,,,0.12,VWS V14.01,2013-07-21 20:13:00,
2013-07-21 15:18:00,70.0,65.9,29.94,ENE,68,2.7,6.0,87,0.00,,,0.12,VWS V14.01,2013-07-21 20:18:00,
2013-07-21 15:23:00,80.2,80.2,29.94,ENE,68,1.6,4.3,100,0.00,,,0.12,VWS V14.01,2013-07-21 20:23:00,
2013-07-21 15:28:00,71.2,66.2,29.94,NE,45,4.3,4.3,84,0.00,,,0.12,VWS V14.01,2013-07-21 20:28:00,
2013-07-21 15:33:00,71.8,66.7,29.94,NE,45,1.6,7.8,84,0.00,,,0.12,VWS V14.01,2013-07-21 20:33:00,
2013-07-21 15:38:00,72.5,66.3,29.94,NE,45,5.6,5.6,81,0.00,,,0.12,VWS V14.01,2013-07-21 20:38:00,
2013-07-21 15:43:00,72.7,65.8,29.94,NE,45,5.6,5.8,79,0.00,,,0.12,VWS V14.01,2013-07-21 20:43:00,
2013-07-21 15:48:00,72.9,66.3,29.94,NNE,22,5.4,5.4,80,0.00,,,0.12,VWS V14.01,2013-07-21 20:48:00,
2013-07-21 15:50:00,72.9,66.3,29.94,ENE,68,2.0,4.0,80,0.00,,,0.12,VWS V14.01,2013-07-21 20:50:00,
2013-07-21 15:55:00,73.6,66.7,29.94,ENE,68,3.8,4.9,79,0.00,,,0.12,VWS V14.01,2013-07-21 20:55:00,
2013-07-21 16:00:00,73.6,65.9,29.94,NNE,22,4.3,4.3,77,0.00,,,0.12,VWS V14.01,2013-07-21 21:00:00,
2013-07-21 16:05:00,73.4,65.4,29.91,NNE,22,3.4,3.4,76,0.00,,,0.12,VWS V14.01,2013-07-21 21:05:00,
2013-07-21 16:10:00,73.8,66.1,29.91,East,90,1.1,2.5,77,0.00,,,0.12,VWS V14.01,2013-07-21 21:10:00,
2013-07-21 16:15:00,74.3,65.9,29.91,ENE,68,3.4,3.6,75,0.00,,,0.12,VWS V14.01,2013-07-21 21:15:00,
2013-07-21 16:20:00,74.5,66.4,29.91,South,180,0.0,2.5,76,0.00,,,0.12,VWS V14.01,2013-07-21 21:20:00,
2013-07-21 16:25:00,75.6,67.5,29.91,WNW,292,1.1,2.5,76,0.00,,,0.12,VWS V14.01,2013-07-21 21:25:00,
2013-07-21 16:30:00,75.2,66.0,29.91,ENE,68,2.9,458.3,73,0.00,,,0.12,VWS V14.01,2013-07-21 21:30:00,
2013-07-21 16:35:00,75.6,66.3,29.91,NNW,338,0.9,3.6,73,0.00,,,0.12,VWS V14.01,2013-07-21 21:35:00,
2013-07-21 16:41:00,75.7,65.3,29.91,ENE,68,1.3,2.9,70,0.00,,,0.12,VWS V14.01,2013-07-21 21:41:00,
2013-07-21 16:46:00,76.5,66.4,29.91,ENE,68,2.5,2.5,71,0.00,,,0.12,VWS V14.01,2013-07-21 21:46:00,
2013-07-21 16:51:00,76.8,66.3,29.91,ENE,68,3.6,3.6,70,0.00,,,0.12,VWS V14.01,2013-07-21 21:51:00,
2013-07-21 16:56:00,76.5,66.0,29.91,NNE,22,4.3,4.3,70,0.00,,,0.12,VWS V14.01,2013-07-21 21:56:00,
2013-07-21 17:01:00,76.1,65.2,29.91,SW,225,2.5,3.1,69,0.00,,,0.12,VWS V14.01,2013-07-21 22:01:00,
2013-07-21 17:06:00,76.6,66.5,29.91,ESE,112,2.5,2.7,71,0.00,,,0.12,VWS V14.01,2013-07-21 22:06:00,
2013-07-21 17:11:00,76.3,65.4,29.91,NE,45,6.9,6.9,69,0.00,,,0.12,VWS V14.01,2013-07-21 22:11:00,
2013-07-21 17:16:00,75.7,64.9,29.91,East,90,2.2,5.6,69,0.00,,,0.12,VWS V14.01,2013-07-21 22:16:00,
2013-07-21 17:21:00,75.4,64.5,29.94,West,270,0.0,6.3,69,0.00,,,0.12,VWS V14.01,2013-07-21 22:21:00,
2013-07-21 17:26:00,75.9,65.8,29.94,NE,45,3.1,4.0,71,0.00,,,0.12,VWS V14.01,2013-07-21 22:26:00,
2013-07-21 17:31:00,75.9,65.8,29.94,NNE,22,1.6,4.9,71,0.00,,,0.12,VWS V14.01,2013-07-21 22:31:00,
2013-07-21 17:36:00,76.1,66.0,29.91,East,90,3.4,4.0,71,0.00,,,0.12,VWS V14.01,2013-07-21 22:36:00,
2013-07-21 17:42:00,76.1,66.0,29.91,NNE,22,1.6,5.4,71,0.00,,,0.12,VWS V14.01,2013-07-21 22:42:00,
2013-07-21 17:47:00,75.9,65.4,29.91,NE,45,0.9,5.6,70,0.00,,,0.12,VWS V14.01,2013-07-21 22:47:00,
2013-07-21 17:52:00,75.6,65.5,29.91,NE,45,3.4,5.6,71,0.00,,,0.12,VWS V14.01,2013-07-21 22:52:00,
2013-07-21 17:57:00,75.4,65.7,29.91,East,90,5.6,5.6,72,0.00,,,0.12,VWS V14.01,2013-07-21 22:57:00,
2013-07-21 18:02:00,75.2,65.2,29.91,ENE,68,3.4,6.3,71,0.00,,,0.12,VWS V14.01,2013-07-21 23:02:00,
2013-07-21 18:07:00,74.8,65.6,29.91,ENE,68,3.4,3.8,73,0.00,,,0.12,VWS V14.01,2013-07-21 23:07:00,
2013-07-21 18:12:00,74.5,65.3,29.91,ENE,68,1.6,5.4,73,0.00,,,0.12,VWS V14.01,2013-07-21 23:12:00,
2013-07-21 18:17:00,74.5,65.7,29.91,ENE,68,4.7,4.7,74,0.00,,,0.12,VWS V14.01,2013-07-21 23:17:00,
2013-07-21 18:22:00,74.7,65.8,29.91,NE,45,2.5,3.8,74,0.00,,,0.12,VWS V14.01,2013-07-21 23:22:00,
2013-07-21 18:27:00,74.7,65.4,29.91,NW,315,0.9,3.4,73,0.00,,,0.12,VWS V14.01,2013-07-21 23:27:00,
2013-07-21 18:32:00,74.5,65.3,29.91,NW,315,2.2,3.4,73,0.00,,,0.12,VWS V14.01,2013-07-21 23:32:00,
2013-07-21 18:37:00,74.3,64.7,29.91,ENE,68,0.0,3.1,72,0.00,,,0.12,VWS V14.01,2013-07-21 23:37:00,
2013-07-21 18:43:00,74.1,64.9,29.91,ENE,68,3.1,3.1,73,0.00,,,0.12,VWS V14.01,2013-07-21 23:43:00,
2013-07-21 18:48:00,73.4,64.6,29.91,NE,45,3.1,3.1,74,0.00,,,0.12,VWS V14.01,2013-07-21 23:48:00,
2013-07-21 18:53:00,72.9,64.9,29.91,ENE,68,0.0,3.8,76,0.00,,,0.12,VWS V14.01,2013-07-21 23:53:00,
2013-07-21 18:58:00,72.5,65.3,29.91,East,90,2.7,4.0,78,0.00,,,0.12,VWS V14.01,2013-07-21 23:58:00,
2013-07-21 19:03:00,72.1,64.9,29.94,East,90,4.0,4.3,78,0.00,,,0.12,VWS V14.01,2013-07-22 00:03:00,
2013-07-21 19:08:00,71.8,64.9,29.94,NE,45,0.0,2.7,79,0.00,,,0.12,VWS V14.01,2013-07-22 00:08:00,
2013-07-21 19:13:00,71.4,64.9,29.94,East,90,3.8,3.8,80,0.00,,,0.12,VWS V14.01,2013-07-22 00:13:00,
2013-07-21 19:18:00,71.1,64.9,29.91,NE,45,1.1,3.1,81,0.00,,,0.12,VWS V14.01,2013-07-22 00:18:00,
2013-07-21 19:23:00,70.7,64.9,29.91,NNE,22,2.9,3.4,82,0.00,,,0.12,VWS V14.01,2013-07-22 00:23:00,
2013-07-21 19:28:00,70.5,65.1,29.91,ENE,68,2.9,4.9,83,0.00,,,0.12,VWS V14.01,2013-07-22 00:28:00,
2013-07-21 19:33:00,70.2,65.1,29.91,East,90,2.9,4.7,84,0.00,,,0.12,VWS V14.01,2013-07-22 00:33:00,
2013-07-21 19:38:00,69.8,65.1,29.91,NNE,22,1.1,5.6,85,0.00,,,0.12,VWS V14.01,2013-07-22 00:38:00,
2013-07-21 19:43:00,69.6,64.9,29.91,ENE,68,2.0,4.0,85,0.00,,,0.12,VWS V14.01,2013-07-22 00:43:00,
2013-07-21 19:49:00,69.1,64.7,29.91,ENE,68,1.3,4.3,86,0.00,,,0.12,VWS V14.01,2013-07-22 00:49:00,
2013-07-21 19:54:00,68.7,64.7,29.91,NE,45,5.4,5.4,87,0.00,,,0.12,VWS V14.01,2013-07-22 00:54:00,
2013-07-21 19:59:00,68.5,64.5,29.91,NE,45,2.9,6.3,87,0.00,,,0.12,VWS V14.01,2013-07-22 00:59:00,
2013-07-21 20:04:00,68.4,64.3,29.91,ENE,68,1.1,3.6,87,0.00,,,0.12,VWS V14.01,2013-07-22 01:04:00,
2013-07-21 20:09:00,68.2,64.5,29.91,ENE,68,1.6,2.9,88,0.00,,,0.12,VWS V14.01,2013-07-22 01:09:00,
2013-07-21 20:14:00,67.8,64.5,29.91,NNE,22,4.5,4.5,89,0.00,,,0.12,VWS V14.01,2013-07-22 01:14:00,
2013-07-21 20:19:00,67.6,64.6,29.91,NNE,22,1.3,2.5,90,0.00,,,0.12,VWS V14.01,2013-07-22 01:19:00,
2013-07-21 20:24:00,67.5,64.4,29.91,ENE,68,2.9,4.0,90,0.00,,,0.12,VWS V14.01,2013-07-22 01:24:00,
2013-07-21 20:29:00,67.1,64.1,29.91,ENE,68,1.6,1.6,90,0.00,,,0.12,VWS V14.01,2013-07-22 01:29:00,
2013-07-21 20:34:00,66.9,63.9,29.91,ENE,68,4.9,4.9,90,0.00,,,0.12,VWS V14.01,2013-07-22 01:34:00,
2013-07-21 20:39:00,66.7,63.7,29.91,NNE,22,1.6,1.6,90,0.00,,,0.12,VWS V14.01,2013-07-22 01:39:00,
2013-07-21 20:44:00,66.6,63.9,29.91,ENE,68,1.3,4.3,91,0.00,,,0.12,VWS V14.01,2013-07-22 01:44:00,
2013-07-21 20:49:00,66.4,63.7,29.91,ENE,68,1.6,5.4,91,0.00,,,0.12,VWS V14.01,2013-07-22 01:49:00,
2013-07-21 20:54:00,66.4,63.7,29.91,East,90,2.0,2.9,91,0.00,,,0.12,VWS V14.01,2013-07-22 01:54:00,
2013-07-21 21:00:00,66.2,63.5,29.91,NE,45,1.1,1.3,91,0.00,,,0.12,VWS V14.01,2013-07-22 02:00:00,
2013-07-21 21:05:00,66.4,64.0,29.91,East,90,2.2,2.7,92,0.00,,,0.12,VWS V14.01,2013-07-22 02:05:00,
2013-07-21 21:10:00,66.4,64.0,29.91,ENE,68,2.0,2.5,92,0.00,,,0.12,VWS V14.01,2013-07-22 02:10:00,
2013-07-21 21:15:00,66.4,64.0,29.91,South,180,1.6,1.6,92,0.00,,,0.12,VWS V14.01,2013-07-22 02:15:00,
2013-07-21 21:20:00,66.4,63.7,29.91,ENE,68,0.0,4.0,91,0.00,,,0.12,VWS V14.01,2013-07-22 02:20:00,
2013-07-21 21:25:00,66.2,63.5,29.91,South,180,0.0,4.3,91,0.00,,,0.12,VWS V14.01,2013-07-22 02:25:00,
2013-07-21 21:30:00,66.2,63.8,29.91,NE,45,2.2,2.5,92,0.00,,,0.12,VWS V14.01,2013-07-22 02:30:00,
2013-07-21 21:35:00,66.0,63.6,29.91,ENE,68,1.1,3.6,92,0.00,,,0.12,VWS V14.01,2013-07-22 02:35:00,
2013-07-21 21:40:00,65.8,63.5,29.91,NE,45,3.8,3.8,92,0.00,,,0.12,VWS V14.01,2013-07-22 02:40:00,
2013-07-21 21:45:00,65.8,63.8,29.91,NNE,22,2.7,3.8,93,0.00,,,0.12,VWS V14.01,2013-07-22 02:45:00,
2013-07-21 21:50:00,65.7,63.6,29.94,ENE,68,1.6,3.8,93,0.00,,,0.12,VWS V14.01,2013-07-22 02:50:00,
2013-07-21 21:55:00,65.5,63.4,29.94,ENE,68,0.0,0.0,93,0.00,,,0.12,VWS V14.01,2013-07-22 02:55:00,
2013-07-21 22:00:00,65.5,63.4,29.94,ENE,68,0.0,2.2,93,0.00,,,0.12,VWS V14.01,2013-07-22 03:00:00,
2013-07-21 22:06:00,65.1,63.0,29.94,ENE,68,0.0,0.0,93,0.00,,,0.12,VWS V14.01,2013-07-22 03:06:00,
2013-07-21 22:11:00,64.9,62.9,29.94,East,90,0.0,2.0,93,0.00,,,0.12,VWS V14.01,2013-07-22 03:11:00,
2013-07-21 22:16:00,64.8,63.0,29.94,NE,45,1.6,2.0,94,0.00,,,0.12,VWS V14.01,2013-07-22 03:16:00,
2013-07-21 22:21:00,64.6,62.8,29.94,NE,45,1.1,1.6,94,0.00,,,0.12,VWS V14.01,2013-07-22 03:21:00,
2013-07-21 22:26:00,64.4,62.6,29.94,NE,45,2.2,2.9,94,0.00,,,0.12,VWS V14.01,2013-07-22 03:26:00,
2013-07-21 22:31:00,64.4,62.6,29.94,NE,45,1.1,1.6,94,0.00,,,0.12,VWS V14.01,2013-07-22 03:31:00,
2013-07-21 22:36:00,64.2,63.1,29.94,NE,45,1.1,2.5,96,0.00,,,0.12,VWS V14.01,2013-07-22 03:36:00,
2013-07-21 22:41:00,64.2,63.1,29.94,NE,45,1.3,2.7,96,0.00,,,0.12,VWS V14.01,2013-07-22 03:41:00,
2013-07-21 22:46:00,64.0,62.9,29.94,NE,45,1.6,3.1,96,0.00,,,0.12,VWS V14.01,2013-07-22 03:46:00,
2013-07-21 22:51:00,64.0,62.9,29.91,ENE,68,1.3,2.0,96,0.00,,,0.12,VWS V14.01,2013-07-22 03:51:00,
2013-07-21 22:56:00,64.0,63.2,29.91,NE,45,2.5,2.9,97,0.00,,,0.12,VWS V14.01,2013-07-22 03:56:00,
2013-07-21 23:01:00,63.9,63.0,29.91,NNE,22,1.3,2.5,97,0.00,,,0.12,VWS V14.01,2013-07-22 04:01:00,
2013-07-21 23:02:00,63.9,63.0,29.91,NE,45,2.7,2.9,97,0.00,,,0.12,VWS V14.01,2013-07-22 04:02:00,
2013-07-21 23:06:00,63.9,63.0,29.91,NE,45,1.1,2.5,97,0.00,,,0.12,VWS V14.01,2013-07-22 04:06:00,
2013-07-21 23:11:00,64.0,63.2,29.91,ENE,68,1.3,4.3,97,0.00,,,0.12,VWS V14.01,2013-07-22 04:11:00,
2013-07-21 23:16:00,64.2,63.3,29.91,NE,45,2.9,2.9,97,0.00,,,0.12,VWS V14.01,2013-07-22 04:16:00,
2013-07-21 23:21:00,64.2,63.3,29.91,NE,45,3.8,5.6,97,0.00,,,0.12,VWS V14.01,2013-07-22 04:21:00,
2013-07-21 23:26:00,64.2,63.7,29.91,ENE,68,1.3,5.6,98,0.00,,,0.12,VWS V14.01,2013-07-22 04:26:00,
2013-07-21 23:31:00,64.2,63.3,29.91,ENE,68,1.1,3.1,97,0.00,,,0.12,VWS V14.01,2013-07-22 04:31:00,
2013-07-21 23:36:00,64.2,63.7,29.91,SSW,202,0.9,3.4,98,0.00,,,0.12,VWS V14.01,2013-07-22 04:36:00,
2013-07-21 23:41:00,64.0,63.5,29.91,NNW,338,2.0,2.0,98,0.00,,,0.12,VWS V14.01,2013-07-22 04:41:00,
2013-07-21 23:46:00,64.0,63.2,29.91,NNE,22,1.6,1.6,97,0.00,,,0.12,VWS V14.01,2013-07-22 04:46:00,
2013-07-21 23:51:00,63.9,63.0,29.91,NE,45,2.2,2.5,97,0.00,,,0.12,VWS V14.01,2013-07-22 04:51:00,
2013-07-21 23:56:00,63.9,63.0,29.91,ENE,68,0.0,1.1,97,0.00,,,0.12,VWS V14.01,2013-07-22 04:56:00,